createdAt,value
2023-04-15T00:01:06.026Z,3.22
2023-04-15T00:04:09.646Z,2.62
2023-04-15T00:07:13.022Z,2.80
2023-04-15T00:10:16.244Z,1.70
2023-04-15T00:13:19.143Z,5.75
2023-04-15T00:16:22.661Z,2.78
2023-04-15T00:19:25.644Z,1.65
2023-04-15T00:22:28.761Z,1.60
2023-04-15T00:25:31.869Z,1.25
2023-04-15T00:28:35.516Z,1.33
2023-04-15T00:31:39.833Z,1.50
2023-04-15T00:34:43.069Z,1.37
2023-04-15T00:37:46.577Z,2.25
2023-04-15T00:40:50.088Z,3.45
2023-04-15T00:43:53.090Z,5.18
2023-04-15T00:46:57.401Z,6.32
2023-04-15T00:50:00.295Z,5.82
2023-04-15T00:53:03.536Z,4.05
2023-04-15T00:56:07.095Z,3.15
2023-04-15T00:59:10.402Z,3.10
2023-04-15T01:02:13.432Z,2.25
2023-04-15T01:05:18.638Z,2.60
2023-04-15T01:08:21.610Z,2.97
2023-04-15T01:11:25.406Z,2.40
2023-04-15T01:14:29.194Z,2.60
2023-04-15T01:17:33.422Z,2.75
2023-04-15T01:20:36.539Z,2.62
2023-04-15T01:23:40.500Z,2.85
2023-04-15T01:26:44.660Z,5.37
2023-04-15T01:29:48.383Z,4.60
2023-04-15T01:32:52.010Z,4.65
2023-04-15T01:35:55.880Z,5.07
2023-04-15T01:39:01.234Z,5.60
2023-04-15T01:42:04.661Z,2.65
2023-04-15T01:45:08.429Z,2.35
2023-04-15T01:48:14.044Z,5.32
2023-04-15T01:51:16.905Z,4.15
2023-04-15T01:54:20.232Z,3.42
2023-04-15T01:57:23.327Z,3.05
2023-04-15T02:00:27.693Z,3.13
2023-04-15T02:03:31.041Z,3.37
2023-04-15T02:06:34.319Z,2.60
2023-04-15T02:09:38.812Z,3.47
2023-04-15T02:12:44.171Z,4.15
2023-04-15T02:15:49.053Z,4.40
2023-04-15T02:18:55.141Z,2.97
2023-04-15T02:21:58.035Z,7.87
2023-04-15T02:25:02.135Z,4.80
2023-04-15T02:28:06.475Z,5.65
2023-04-15T02:31:09.838Z,4.05
2023-04-15T02:34:14.493Z,6.78
2023-04-15T02:37:20.575Z,4.78
2023-04-15T02:40:23.635Z,7.15
2023-04-15T02:43:26.684Z,6.15
2023-04-15T02:46:29.608Z,4.70
2023-04-15T02:49:33.970Z,5.55
2023-04-15T02:52:36.801Z,4.97
2023-04-15T02:55:40.386Z,2.83
2023-04-15T02:58:45.274Z,2.55
2023-04-15T03:01:48.639Z,3.65
2023-04-15T03:04:51.956Z,2.30
2023-04-15T03:07:55.595Z,2.28
2023-04-15T03:11:01.022Z,3.12
2023-04-15T03:14:05.540Z,4.45
2023-04-15T03:17:08.872Z,4.37
2023-04-15T03:20:14.539Z,3.60
2023-04-15T03:23:17.813Z,3.25
2023-04-15T03:26:27.726Z,3.97
2023-04-15T03:29:31.252Z,2.78
2023-04-15T03:32:35.283Z,3.80
2023-04-15T03:35:38.224Z,4.95
2023-04-15T03:38:41.497Z,3.10
2023-04-15T03:41:44.480Z,3.90
2023-04-15T03:44:47.668Z,5.40
2023-04-15T03:47:50.719Z,8.18
2023-04-15T03:50:54.227Z,5.40
2023-04-15T03:53:57.196Z,4.85
2023-04-15T03:57:00.391Z,4.72
2023-04-15T04:00:03.334Z,4.12
2023-04-15T04:03:14.890Z,5.28
2023-04-15T04:06:18.317Z,4.70
2023-04-15T04:09:21.214Z,4.30
2023-04-15T04:12:24.381Z,4.40
2023-04-15T04:15:27.394Z,5.50
2023-04-15T04:18:34.908Z,5.28
2023-04-15T04:21:39.779Z,5.57
2023-04-15T04:24:44.091Z,5.07
2023-04-15T04:27:47.227Z,4.68
2023-04-15T04:30:51.206Z,6.97
2023-04-15T04:33:54.088Z,5.40
2023-04-15T04:36:57.420Z,5.57
2023-04-15T04:40:00.496Z,6.50
2023-04-15T04:43:03.688Z,6.55
2023-04-15T04:46:06.599Z,7.53
2023-04-15T04:49:10.140Z,7.12
2023-04-15T04:52:13.311Z,8.27
2023-04-15T04:55:16.868Z,5.93
2023-04-15T04:58:19.773Z,5.30
2023-04-15T05:01:23.078Z,8.52
2023-04-15T05:04:26.652Z,4.78
2023-04-15T05:07:29.869Z,4.20
2023-04-15T05:10:32.989Z,3.90
2023-04-15T05:13:38.843Z,4.68
2023-04-15T05:16:42.245Z,4.43
2023-04-15T05:19:45.566Z,5.62
2023-04-15T05:22:48.560Z,7.45
2023-04-15T05:25:52.381Z,10.13
2023-04-15T05:28:55.258Z,8.20
2023-04-15T05:31:58.541Z,7.78
2023-04-15T05:35:01.710Z,8.40
2023-04-15T05:38:04.853Z,6.87
2023-04-15T05:41:07.863Z,8.65
2023-04-15T05:44:11.185Z,6.15
2023-04-15T05:47:14.086Z,5.28
2023-04-15T05:50:17.336Z,4.43
2023-04-15T05:53:20.858Z,4.30
2023-04-15T05:56:24.148Z,5.37
2023-04-15T05:59:28.553Z,4.15
2023-04-15T06:02:33.476Z,4.25
2023-04-15T06:05:36.907Z,3.60
2023-04-15T06:08:40.109Z,3.78
2023-04-15T06:11:43.293Z,5.00
2023-04-15T06:14:46.238Z,2.83
2023-04-15T06:17:49.469Z,5.30
2023-04-15T06:20:52.415Z,5.65
2023-04-15T06:23:56.759Z,5.00
2023-04-15T06:26:59.679Z,4.37
2023-04-15T06:30:03.065Z,5.32
2023-04-15T06:33:06.437Z,4.18
2023-04-15T06:36:09.728Z,5.80
2023-04-15T06:39:12.582Z,4.25
2023-04-15T06:42:16.322Z,4.03
2023-04-15T06:45:20.695Z,4.28
2023-04-15T06:48:26.597Z,5.07
2023-04-15T06:51:29.415Z,4.32
2023-04-15T06:54:34.060Z,3.87
2023-04-15T06:57:37.072Z,5.22
2023-04-15T07:00:40.813Z,4.45
2023-04-15T07:03:43.724Z,3.47
2023-04-15T07:06:47.996Z,3.58
2023-04-15T07:09:51.423Z,2.78
2023-04-15T07:12:54.854Z,3.40
2023-04-15T07:15:57.807Z,2.62
2023-04-15T07:19:01.368Z,3.10
2023-04-15T07:22:04.989Z,2.40
2023-04-15T07:25:09.112Z,2.22
2023-04-15T07:28:12.127Z,2.20
2023-04-15T07:31:16.644Z,3.40
2023-04-15T07:34:21.105Z,3.20
2023-04-15T07:37:25.760Z,3.15
2023-04-15T07:40:29.201Z,3.40
2023-04-15T07:43:32.865Z,2.70
2023-04-15T07:46:37.444Z,2.30
2023-04-15T07:49:43.424Z,5.28
2023-04-15T07:52:46.502Z,2.42
2023-04-15T07:55:49.825Z,3.03
2023-04-15T07:58:52.831Z,3.58
2023-04-15T08:01:56.249Z,2.58
2023-04-15T08:05:00.000Z,3.58
2023-04-15T08:08:03.103Z,2.50
2023-04-15T08:11:06.445Z,2.80
2023-04-15T08:14:09.386Z,3.28
2023-04-15T08:17:12.663Z,4.00
2023-04-15T08:20:15.656Z,2.95
2023-04-15T08:23:19.591Z,4.40
2023-04-15T08:26:23.031Z,5.30
2023-04-15T08:29:27.448Z,4.78
2023-04-15T08:32:31.624Z,9.40
2023-04-15T08:35:34.808Z,6.60
2023-04-15T08:38:37.792Z,5.60
2023-04-15T08:41:48.054Z,6.05
2023-04-15T08:44:52.047Z,4.53
2023-04-15T08:47:56.895Z,3.55
2023-04-15T08:51:00.266Z,2.15
2023-04-15T08:54:03.766Z,6.43
2023-04-15T08:57:06.937Z,2.40
2023-04-15T09:00:10.756Z,2.28
2023-04-15T09:03:13.919Z,1.95
2023-04-15T09:06:18.287Z,3.75
2023-04-15T09:09:21.196Z,5.62
2023-04-15T09:12:24.415Z,1.60
2023-04-15T09:15:30.105Z,2.37
2023-04-15T09:18:35.060Z,1.85
2023-04-15T09:21:37.906Z,1.62
2023-04-15T09:24:43.394Z,2.70
2023-04-15T09:27:51.093Z,2.00
2023-04-15T09:31:01.948Z,3.90
2023-04-15T09:34:07.034Z,4.90
2023-04-15T09:37:11.348Z,2.72
2023-04-15T09:40:14.469Z,4.57
2023-04-15T09:43:18.031Z,2.87
2023-04-15T09:46:21.150Z,3.12
2023-04-15T09:49:25.747Z,1.60
2023-04-15T09:52:29.138Z,1.37
2023-04-15T09:55:33.583Z,1.60
2023-04-15T09:58:38.912Z,1.45
2023-04-15T10:01:43.028Z,1.50
2023-04-15T10:04:48.809Z,1.50
2023-04-15T10:07:52.205Z,1.70
2023-04-15T10:10:56.252Z,2.92
2023-04-15T10:13:59.288Z,1.80
2023-04-15T10:17:03.554Z,2.72
2023-04-15T10:20:07.769Z,1.73
2023-04-15T10:23:13.366Z,1.80
2023-04-15T10:26:20.127Z,1.58
2023-04-15T10:29:27.886Z,1.15
2023-04-15T10:32:31.306Z,1.55
2023-04-15T10:35:34.718Z,2.47
2023-04-15T10:38:42.646Z,1.77
2023-04-15T10:41:45.884Z,1.50
2023-04-15T10:44:53.527Z,5.18
2023-04-15T10:47:58.212Z,1.55
2023-04-15T10:51:02.641Z,1.40
2023-04-15T10:54:10.638Z,3.67
2023-04-15T10:57:24.146Z,1.50
2023-04-15T11:00:30.567Z,0.80
2023-04-15T11:03:41.933Z,0.98
2023-04-15T11:06:46.629Z,1.17
2023-04-15T11:09:49.493Z,0.80
2023-04-15T11:12:58.092Z,1.13
2023-04-15T11:16:03.383Z,0.90
2023-04-15T11:19:07.186Z,0.90
2023-04-15T11:22:11.078Z,0.77
2023-04-15T11:25:26.723Z,0.50
2023-04-15T11:31:33.813Z,0.62
2023-04-15T11:34:37.794Z,0.73
2023-04-15T11:37:40.946Z,0.63
2023-04-15T11:40:46.797Z,0.75
2023-04-15T11:43:51.319Z,0.90
2023-04-15T11:46:56.640Z,0.85
2023-04-15T11:50:15.168Z,0.60
2023-04-15T11:53:18.069Z,0.82
2023-04-15T11:56:25.830Z,0.80
2023-04-15T11:59:45.323Z,0.60
2023-04-15T12:02:49.423Z,0.60
2023-04-15T12:06:12.510Z,0.65
2023-04-15T12:09:20.443Z,0.62
2023-04-15T12:12:28.740Z,0.68
2023-04-15T12:15:31.665Z,0.50
2023-04-15T12:18:34.884Z,1.08
2023-04-15T12:21:40.099Z,2.03
2023-04-15T12:24:44.522Z,1.60
2023-04-15T12:27:54.761Z,0.75
2023-04-15T12:30:58.022Z,0.60
2023-04-15T12:34:01.330Z,0.45
2023-04-15T12:37:06.467Z,0.93
2023-04-15T12:40:09.707Z,0.60
2023-04-15T12:43:12.860Z,0.57
2023-04-15T12:46:15.967Z,0.68
2023-04-15T12:49:21.112Z,1.05
2023-04-15T12:52:25.254Z,0.75
2023-04-15T12:55:28.633Z,0.45
2023-04-15T12:58:31.703Z,1.73
2023-04-15T13:01:34.965Z,1.20
2023-04-15T13:04:37.860Z,0.95
2023-04-15T13:07:41.110Z,1.42
2023-04-15T13:10:44.074Z,1.20
2023-04-15T13:13:47.382Z,1.40
2023-04-15T13:16:50.645Z,1.20
2023-04-15T13:19:53.876Z,1.35
2023-04-15T13:22:56.951Z,1.52
2023-04-15T13:26:00.344Z,1.35
2023-04-15T13:29:03.282Z,1.80
2023-04-15T13:32:07.508Z,0.70
2023-04-15T13:35:10.478Z,0.80
2023-04-15T13:38:13.597Z,1.12
2023-04-15T13:41:16.629Z,1.25
2023-04-15T13:44:22.106Z,0.60
2023-04-15T13:47:25.490Z,0.90
2023-04-15T13:50:29.209Z,0.62
2023-04-15T13:53:37.941Z,1.27
2023-04-15T13:56:42.451Z,0.68
2023-04-15T13:59:45.842Z,0.60
2023-04-15T14:02:49.206Z,0.70
2023-04-15T14:05:56.136Z,0.95
2023-04-15T14:08:59.198Z,0.80
2023-04-15T14:12:02.671Z,0.77
2023-04-15T14:15:06.228Z,1.00
2023-04-15T14:18:09.597Z,0.80
2023-04-15T14:21:12.542Z,0.77
2023-04-15T14:24:16.449Z,0.43
2023-04-15T14:27:19.569Z,0.82
2023-04-15T14:30:23.366Z,0.60
2023-04-15T14:33:26.466Z,0.47
2023-04-15T14:36:29.884Z,1.08
2023-04-15T14:39:32.956Z,1.25
2023-04-15T14:42:37.003Z,0.60
2023-04-15T14:45:42.208Z,0.77
2023-04-15T14:48:48.029Z,0.70
2023-04-15T14:51:51.237Z,1.17
2023-04-15T14:54:54.367Z,1.05
2023-04-15T14:57:57.343Z,0.70
2023-04-15T15:01:02.076Z,1.08
2023-04-15T15:04:05.225Z,0.85
2023-04-15T15:07:08.424Z,0.60
2023-04-15T15:10:11.288Z,1.23
2023-04-15T15:13:15.109Z,0.80
2023-04-15T15:16:18.600Z,2.67
2023-04-15T15:19:22.514Z,2.62
2023-04-15T15:22:26.282Z,1.27
2023-04-15T15:25:29.580Z,1.02
2023-04-15T15:28:32.530Z,2.20
2023-04-15T15:31:36.256Z,2.08
2023-04-15T15:34:39.429Z,0.80
2023-04-15T15:37:43.458Z,1.30
2023-04-15T15:40:46.414Z,2.03
2023-04-15T15:43:49.725Z,4.05
2023-04-15T15:46:52.732Z,1.52
2023-04-15T15:49:55.863Z,0.40
2023-04-15T15:52:59.091Z,0.68
2023-04-15T15:56:05.469Z,2.55
2023-04-15T15:59:09.158Z,2.28
2023-04-15T16:02:14.551Z,0.98
2023-04-15T16:05:18.163Z,1.15
2023-04-15T16:08:21.584Z,1.42
2023-04-15T16:11:24.954Z,1.45
2023-04-15T16:14:28.411Z,0.75
2023-04-15T16:17:32.620Z,0.65
2023-04-15T16:20:35.838Z,2.03
2023-04-15T16:23:39.120Z,1.00
2023-04-15T16:26:42.403Z,1.58
2023-04-15T16:29:45.756Z,3.50
2023-04-15T16:32:48.856Z,0.75
2023-04-15T16:35:53.121Z,0.40
2023-04-15T16:38:56.810Z,0.43
2023-04-15T16:42:00.483Z,0.45
2023-04-15T16:45:03.413Z,0.60
2023-04-15T16:48:12.386Z,0.88
2023-04-15T16:51:15.602Z,0.80
2023-04-15T16:54:19.585Z,0.88
2023-04-15T16:57:22.520Z,1.27
2023-04-15T17:00:28.958Z,1.40
2023-04-15T17:03:32.376Z,1.37
2023-04-15T17:06:37.143Z,2.10
2023-04-15T17:09:40.577Z,3.20
2023-04-15T17:12:53.065Z,1.77
2023-04-15T17:15:56.287Z,1.50
2023-04-15T17:19:00.600Z,1.47
2023-04-15T17:25:25.751Z,1.17
2023-04-15T17:28:42.012Z,3.58
2023-04-15T17:38:05.550Z,2.53
2023-04-15T17:41:10.696Z,1.80
2023-04-15T17:44:34.039Z,3.10
2023-04-15T17:47:37.229Z,5.57
2023-04-15T17:50:53.940Z,1.77
2023-04-15T17:53:57.117Z,1.15
2023-04-15T17:57:01.539Z,0.70
2023-04-15T18:00:06.286Z,1.00
2023-04-15T18:03:15.726Z,1.17
2023-04-15T18:06:22.555Z,0.88
2023-04-15T18:09:27.760Z,1.02
2023-04-15T18:12:31.567Z,2.00
2023-04-15T18:15:35.394Z,1.15
2023-04-15T18:18:39.736Z,0.88
2023-04-15T18:21:43.271Z,0.73
2023-04-15T18:24:47.419Z,1.62
2023-04-15T18:27:51.448Z,0.80
2023-04-15T18:30:57.115Z,1.07
2023-04-15T18:34:00.782Z,5.10
2023-04-15T18:37:08.070Z,10.48
2023-04-15T18:40:12.321Z,12.93
2023-04-15T18:43:16.276Z,5.97
2023-04-15T18:46:20.921Z,1.73
2023-04-15T18:49:24.773Z,1.85
2023-04-15T18:52:28.789Z,1.15
2023-04-15T18:55:34.988Z,0.93
2023-04-15T18:59:08.576Z,0.77
2023-04-15T19:02:03.686Z,1.95
2023-04-15T19:05:07.525Z,1.37
2023-04-15T19:08:13.170Z,1.40
2023-04-15T19:11:17.443Z,1.70
2023-04-15T19:14:21.844Z,2.37
2023-04-15T19:17:25.764Z,2.33
2023-04-15T19:20:29.837Z,1.80
2023-04-15T19:23:33.972Z,2.10
2023-04-15T19:26:39.239Z,2.20
2023-04-15T19:29:43.207Z,2.03
2023-04-15T19:32:47.295Z,2.03
2023-04-15T19:35:51.968Z,1.95
2023-04-15T19:38:56.791Z,2.15
2023-04-15T19:42:10.036Z,2.05
2023-04-15T19:45:14.156Z,3.30
2023-04-15T19:48:19.833Z,2.37
2023-04-15T19:51:24.319Z,1.55
2023-04-15T19:54:28.421Z,2.30
2023-04-15T19:57:34.649Z,5.82
2023-04-15T20:00:40.259Z,3.35
2023-04-15T20:03:44.546Z,2.72
2023-04-15T20:06:49.419Z,2.03
2023-04-15T20:09:54.073Z,1.77
2023-04-15T20:12:58.169Z,2.08
2023-04-15T20:16:02.786Z,3.93
2023-04-15T20:19:09.955Z,2.83
2023-04-15T20:22:13.817Z,2.78
2023-04-15T20:25:17.802Z,3.42
2023-04-15T20:28:25.364Z,2.65
2023-04-15T20:31:29.065Z,3.30
2023-04-15T20:34:32.488Z,3.33
2023-04-15T20:37:38.219Z,2.87
2023-04-15T20:40:43.692Z,2.97
2023-04-15T20:43:47.540Z,2.42
2023-04-15T20:46:52.720Z,3.12
2023-04-15T20:49:56.300Z,3.33
2023-04-15T20:53:00.132Z,2.40
2023-04-15T20:56:03.392Z,2.35
2023-04-15T20:59:07.080Z,1.80
2023-04-15T21:02:11.027Z,1.65
2023-04-15T21:05:14.750Z,2.12
2023-04-15T21:08:17.631Z,2.10
2023-04-15T21:11:38.776Z,1.83
2023-04-15T21:14:43.988Z,2.10
2023-04-15T21:17:48.596Z,2.03
2023-04-15T21:20:58.378Z,2.03
2023-04-15T21:24:01.578Z,1.90
2023-04-15T21:27:06.025Z,2.58
2023-04-15T21:30:11.142Z,1.67
2023-04-15T21:33:14.103Z,1.55
2023-04-15T21:36:18.432Z,1.47
2023-04-15T21:39:21.714Z,1.45
2023-04-15T21:42:25.034Z,1.67
2023-04-15T21:45:28.106Z,1.40
2023-04-15T21:48:31.767Z,1.12
2023-04-15T21:51:34.750Z,1.50
2023-04-15T21:54:38.189Z,1.33
2023-04-15T21:57:41.095Z,1.33
2023-04-15T22:00:44.381Z,1.30
2023-04-15T22:03:47.772Z,1.20
2023-04-15T22:06:52.335Z,1.17
2023-04-15T22:09:55.601Z,1.65
2023-04-15T22:13:02.882Z,1.40
2023-04-15T22:16:06.281Z,1.30
2023-04-15T22:19:10.824Z,1.67
2023-04-15T22:22:14.037Z,1.92
2023-04-15T22:25:17.401Z,1.60
2023-04-15T22:28:20.661Z,1.80
2023-04-15T22:31:23.576Z,1.02
2023-04-15T22:34:26.824Z,2.25
2023-04-15T22:37:30.892Z,2.65
2023-04-15T22:40:34.477Z,0.95
2023-04-15T22:43:37.472Z,0.85
2023-04-15T22:46:41.241Z,1.05
2023-04-15T22:49:45.079Z,1.20
2023-04-15T22:52:48.785Z,1.27
2023-04-15T22:55:52.120Z,1.17
2023-04-15T22:58:55.452Z,0.98
2023-04-15T23:01:59.536Z,1.73
2023-04-15T23:05:11.820Z,1.35
2023-04-15T23:08:16.474Z,1.35
2023-04-15T23:11:19.702Z,2.70
2023-04-15T23:14:23.181Z,2.97
2023-04-15T23:17:26.868Z,1.92
2023-04-15T23:20:29.813Z,2.92
2023-04-15T23:23:33.624Z,2.97
2023-04-15T23:26:36.514Z,2.47
2023-04-15T23:29:39.748Z,1.83
2023-04-15T23:32:42.838Z,3.12
2023-04-15T23:35:46.668Z,2.70
2023-04-15T23:38:49.549Z,2.15
2023-04-15T23:41:53.217Z,1.77
2023-04-15T23:44:56.413Z,2.05
2023-04-15T23:47:59.745Z,1.77
2023-04-15T23:51:02.798Z,2.55
2023-04-15T23:54:06.128Z,2.70
2023-04-15T23:57:09.146Z,4.12
